Time;durP1;ratioP1;P1;durP2;ratioP2;P2;SDS_P1;SDS_P2;PMS_P1;PMS_P2;Temp;Humidity;BMP_temperature;BMP_pressure;BME280_temperature;BME280_humidity;BME280_pressure;Samples;Min_cycle;Max_cycle;Signal;HPM_P1;HPM_P2
2023/09/05 00:07:19;;;;;;;7.80;7.00;;;;;;;30.57;49.65;100999.88;21067166;28;20052;-63
2023/09/05 00:17:21;;;;;;;7.18;6.47;;;;;;;30.44;49.52;100984.84;21073206;28;20470;-62
2023/09/05 00:27:22;;;;;;;7.10;6.38;;;;;;;30.44;49.54;100986.88;21076562;28;20027;-66
2023/09/05 00:37:24;;;;;;;8.50;6.60;;;;;;;30.55;49.58;101021.97;21030724;28;20044;-61
2023/09/05 00:47:28;;;;;;;8.10;6.82;;;;;;;30.60;49.80;101033.03;21075290;28;20036;-61
2023/09/05 00:57:35;;;;;;;8.00;7.10;;;;;;;30.35;50.03;100990.56;21054869;28;20032;-63
2023/09/05 01:08:01;;;;;;;8.63;7.20;;;;;;;30.60;50.20;101042.34;21058692;28;20036;-60
2023/09/05 01:18:03;;;;;;;7.97;7.18;;;;;;;30.64;50.33;101045.31;21037588;28;20090;-62
2023/09/05 01:28:11;;;;;;;8.90;7.68;;;;;;;30.69;50.38;101053.56;21056390;28;20069;-62
2023/09/05 01:38:15;;;;;;;8.23;7.32;;;;;;;30.71;50.45;101056.94;21071646;28;20544;-62
2023/09/05 01:48:17;;;;;;;9.80;7.72;;;;;;;30.71;50.89;101065.41;21083082;28;20040;-61
2023/09/05 01:58:21;;;;;;;7.88;7.07;;;;;;;30.69;50.45;101070.53;21075420;28;20040;-61
2023/09/05 02:08:25;;;;;;;8.77;7.57;;;;;;;30.71;50.45;101068.22;21080509;28;20036;-63
2023/09/05 02:18:32;;;;;;;9.20;7.43;;;;;;;30.75;50.33;101068.38;21079991;28;20521;-64
2023/09/05 02:28:33;;;;;;;8.43;7.63;;;;;;;30.76;50.27;101068.00;21085567;28;20105;-62
2023/09/05 02:38:35;;;;;;;8.32;7.53;;;;;;;30.76;49.98;101059.53;21084279;28;20036;-62
2023/09/05 02:48:39;;;;;;;9.45;7.95;;;;;;;30.76;50.20;101068.00;21059242;28;20101;-62
2023/09/05 02:58:43;;;;;;;9.80;8.40;;;;;;;30.81;50.31;101067.78;21030171;28;20074;-62
2023/09/05 03:08:46;;;;;;;8.63;7.40;;;;;;;30.81;50.32;101062.16;21080354;28;20097;-62
2023/09/05 03:18:47;;;;;;;9.48;7.95;;;;;;;30.84;50.99;101069.94;21073040;28;20847;-63
2023/09/05 03:28:48;;;;;;;9.43;8.43;;;;;;;30.91;52.67;101054.41;21076161;28;20383;-63
2023/09/05 03:38:50;;;;;;;13.13;9.30;;;;;;;30.94;52.99;101065.84;21074960;28;20479;-65
2023/09/05 03:48:53;;;;;;;13.90;9.23;;;;;;;30.96;52.71;101069.16;21064239;28;20089;-61
2023/09/05 03:58:54;;;;;;;10.73;9.43;;;;;;;30.97;52.92;101064.31;21077925;28;20040;-61
2023/09/05 04:08:55;;;;;;;11.73;10.52;;;;;;;30.99;52.62;101067.66;21078368;28;20056;-60
2023/09/05 04:18:57;;;;;;;11.02;9.88;;;;;;;30.99;52.55;101074.13;21077380;28;20024;-62
2023/09/05 04:28:58;;;;;;;11.88;9.90;;;;;;;31.02;52.77;101069.75;21077439;28;20422;-62
2023/09/05 04:39:01;;;;;;;10.85;9.80;;;;;;;31.02;52.61;101075.41;21062393;28;20044;-62
2023/09/05 04:49:03;;;;;;;11.60;9.50;;;;;;;31.03;52.50;101079.91;21076412;28;20048;-61
2023/09/05 04:59:05;;;;;;;11.15;9.80;;;;;;;31.04;52.58;101084.38;21061861;28;20047;-61
2023/09/05 05:09:09;;;;;;;12.73;10.55;;;;;;;31.02;52.47;101078.22;21076046;28;20048;-67
2023/09/05 05:19:10;;;;;;;11.50;10.30;;;;;;;31.05;52.44;101088.84;21084436;28;20037;-61
2023/09/05 05:29:12;;;;;;;13.85;11.07;;;;;;;31.08;52.28;101105.13;21088606;28;20098;-62
2023/09/05 05:39:13;;;;;;;11.60;10.43;;;;;;;30.98;52.50;101071.66;21088971;28;20402;-62
2023/09/05 05:49:17;;;;;;;11.52;9.95;;;;;;;30.72;52.48;101024.69;21077550;28;20025;-61
2023/09/05 05:59:18;;;;;;;11.23;9.85;;;;;;;31.10;52.53;101097.13;21062445;28;20483;-62
2023/09/05 06:09:22;;;;;;;12.20;10.30;;;;;;;31.10;52.40;101103.59;21087486;28;20028;-62
2023/09/05 06:19:24;;;;;;;12.07;10.88;;;;;;;31.11;52.32;101104.41;21039055;28;20486;-62
2023/09/05 06:29:25;;;;;;;12.07;10.88;;;;;;;31.13;52.39;101113.38;21084253;28;20024;-61
2023/09/05 06:39:27;;;;;;;11.13;9.98;;;;;;;31.12;52.22;101117.41;21084927;28;20105;-61
2023/09/05 06:49:28;;;;;;;10.90;9.80;;;;;;;31.03;52.11;101109.00;21065315;28;20024;-61
2023/09/05 06:59:29;;;;;;;14.07;10.80;;;;;;;31.14;52.30;101135.66;21067095;28;20058;-62
2023/09/05 07:09:31;;;;;;;13.25;10.30;;;;;;;31.11;52.29;101136.34;21069910;28;20039;-62
2023/09/05 07:19:36;;;;;;;12.27;10.98;;;;;;;31.15;52.28;101139.28;21027511;28;20484;-62
2023/09/05 07:29:38;;;;;;;11.60;10.40;;;;;;;31.10;52.45;101136.69;21034249;28;20032;-63
2023/09/05 07:39:44;;;;;;;12.23;11.02;;;;;;;31.15;52.20;101142.13;21080006;28;20036;-61
2023/09/05 07:49:48;;;;;;;11.38;10.20;;;;;;;31.04;52.29;101132.44;21079042;28;20109;-61
2023/09/05 07:59:50;;;;;;;11.55;9.85;;;;;;;31.17;52.16;101153.94;21078445;28;20449;-61
2023/09/05 08:09:51;;;;;;;11.93;10.60;;;;;;;31.18;52.09;101161.22;21073539;28;20109;-64
2023/09/05 08:19:52;;;;;;;13.00;11.07;;;;;;;31.18;52.05;101158.41;21073794;28;20059;-61
2023/09/05 08:29:56;;;;;;;14.63;11.30;;;;;;;31.19;52.25;101168.53;21077390;28;20036;-61
2023/09/05 08:39:58;;;;;;;15.35;10.88;;;;;;;31.20;52.29;101175.00;21063042;28;20032;-61
2023/09/05 08:49:59;;;;;;;12.07;10.85;;;;;;;31.22;52.29;101190.47;21083276;28;20074;-62
2023/09/05 09:00:04;;;;;;;11.15;10.00;;;;;;;31.19;52.38;101193.97;21077680;28;20045;-61
2023/09/05 09:10:20;;;;;;;12.00;10.87;;;;;;;31.18;52.27;101212.13;21066902;28;20028;-61
2023/09/05 09:20:23;;;;;;;13.38;11.35;;;;;;;31.17;52.37;101216.13;21047525;28;20040;-62
2023/09/05 09:30:30;;;;;;;11.07;9.68;;;;;;;31.18;52.22;101216.94;21043839;28;20043;-61
2023/09/05 09:40:37;;;;;;;13.02;10.77;;;;;;;31.16;52.36;101234.25;21089871;28;20097;-61
2023/09/05 09:50:39;;;;;;;12.38;10.88;;;;;;;31.03;52.03;101216.38;21048338;28;20036;-63
2023/09/05 10:00:45;;;;;;;12.70;10.90;;;;;;;31.18;52.09;101251.69;21087309;28;20129;-62
2023/09/05 10:10:48;;;;;;;12.43;10.95;;;;;;;31.18;51.95;101260.16;21087412;28;20052;-62
2023/09/05 10:20:54;;;;;;;12.30;10.95;;;;;;;31.16;51.97;101256.88;21055034;28;20493;-61
2023/09/05 10:31:05;;;;;;;13.05;10.98;;;;;;;31.13;51.76;101269.69;21001373;28;20037;-61
2023/09/05 10:41:36;;;;;;;12.82;10.55;;;;;;;31.11;51.75;101285.31;21084278;28;20471;-61
2023/09/05 10:52:17;;;;;;;12.23;10.55;;;;;;;31.09;51.60;101288.50;21083458;28;20611;-61
2023/09/05 11:02:26;;;;;;;10.63;9.52;;;;;;;31.08;51.39;101291.69;21082603;28;20044;-61
2023/09/05 11:12:31;;;;;;;11.80;9.93;;;;;;;31.11;51.20;101307.94;21038276;28;20130;-61
2023/09/05 11:22:35;;;;;;;11.52;10.32;;;;;;;31.14;50.94;101318.56;21064084;28;20044;-62
2023/09/05 11:32:39;;;;;;;11.48;9.30;;;;;;;31.12;50.86;101321.75;21077775;28;20056;-62
2023/09/05 11:42:41;;;;;;;13.27;10.00;;;;;;;31.13;50.71;101329.03;21079615;28;20097;-61
2023/09/05 11:52:43;;;;;;;13.13;10.18;;;;;;;31.12;50.76;101337.88;21071276;28;20040;-62
2023/09/05 12:02:45;;;;;;;13.75;9.90;;;;;;;31.09;50.51;101330.06;21059901;28;20048;-61
2023/09/05 12:13:03;;;;;;;12.43;9.90;;;;;;;31.07;50.63;101340.91;21078044;28;20047;-62
2023/09/05 12:23:05;;;;;;;11.25;9.90;;;;;;;31.09;50.50;101330.06;21076674;28;20040;-62
2023/09/05 12:33:10;;;;;;;10.90;9.45;;;;;;;31.07;50.56;101336.06;21076837;28;20043;-62
2023/09/05 12:43:11;;;;;;;12.05;9.52;;;;;;;31.03;50.49;101328.63;21076762;28;20066;-61
2023/09/05 12:53:13;;;;;;;10.98;9.73;;;;;;;31.10;50.48;101345.84;21075643;28;20055;-63
2023/09/05 13:03:14;;;;;;;11.05;9.32;;;;;;;31.10;50.28;101343.03;21075726;28;20048;-62
2023/09/05 13:13:15;;;;;;;10.77;9.68;;;;;;;31.10;50.21;101337.38;21075215;28;20044;-63
2023/09/05 13:23:22;;;;;;;10.68;9.35;;;;;;;31.10;50.17;101337.38;21074942;28;20469;-62
2023/09/05 13:33:29;;;;;;;11.45;9.75;;;;;;;30.61;50.16;101269.16;21077741;28;20386;-62
2023/09/05 13:43:31;;;;;;;11.48;10.27;;;;;;;31.09;49.97;101344.19;21089294;28;20036;-62
2023/09/05 13:53:32;;;;;;;10.77;9.65;;;;;;;31.09;49.85;101339.38;21088760;28;20036;-63
2023/09/05 14:03:33;;;;;;;11.57;10.02;;;;;;;31.10;49.68;101343.84;21088170;28;20356;-62
2023/09/05 14:13:35;;;;;;;13.32;11.20;;;;;;;31.09;49.83;101350.69;21087137;28;20052;-61
2023/09/05 14:23:39;;;;;;;13.25;11.20;;;;;;;31.10;49.80;101338.19;21086467;28;20387;-62
2023/09/05 14:33:41;;;;;;;13.70;11.65;;;;;;;31.12;49.50;101352.00;21085645;28;20040;-61
2023/09/05 14:43:42;;;;;;;12.25;11.02;;;;;;;31.11;49.32;101319.22;21084293;28;20028;-61
2023/09/05 14:53:44;;;;;;;12.52;11.30;;;;;;;31.12;49.42;101316.09;21083366;28;20498;-61
2023/09/05 15:03:45;;;;;;;15.48;12.60;;;;;;;31.11;49.40;101307.94;21083151;28;20109;-62
2023/09/05 15:13:47;;;;;;;13.02;11.70;;;;;;;31.16;49.25;101316.25;21081808;28;20044;-62
2023/09/05 15:23:50;;;;;;;13.55;11.30;;;;;;;31.22;49.34;101309.19;21081547;28;20032;-62
2023/09/05 15:33:58;;;;;;;13.95;12.35;;;;;;;31.25;49.15;101297.22;21080877;28;20051;-62
2023/09/05 15:43:59;;;;;;;14.55;13.05;;;;;;;31.27;49.16;101294.03;21079582;28;20028;-62
2023/09/05 15:54:00;;;;;;;16.80;12.73;;;;;;;31.18;48.94;101263.00;21078679;28;20437;-63
2023/09/05 16:04:03;;;;;;;15.18;12.98;;;;;;;31.29;49.10;101275.56;21078379;28;20125;-63
2023/09/05 16:14:05;;;;;;;15.90;14.25;;;;;;;31.34;48.84;101269.72;21078102;28;20040;-62
2023/09/05 16:24:06;;;;;;;14.98;13.57;;;;;;;31.36;48.89;101270.19;21077246;28;20062;-63
2023/09/05 16:34:08;;;;;;;18.67;15.48;;;;;;;31.38;48.81;101262.22;21076859;28;20032;-62
2023/09/05 16:44:09;;;;;;;16.60;14.80;;;;;;;31.33;48.86;101248.25;21076900;28;20097;-62
2023/09/05 16:54:11;;;;;;;18.25;15.00;;;;;;;31.35;48.92;101234.63;21075609;28;20486;-62
2023/09/05 17:04:12;;;;;;;18.65;16.27;;;;;;;31.44;48.97;101225.25;21075872;28;20039;-62
2023/09/05 17:14:13;;;;;;;17.83;15.95;;;;;;;31.44;48.86;101225.25;21088016;28;20471;-63
2023/09/05 17:24:15;;;;;;;18.20;15.40;;;;;;;31.32;48.77;101192.06;21091164;28;20051;-64
2023/09/05 17:34:16;;;;;;;17.17;15.20;;;;;;;31.49;48.95;101205.22;21090870;28;20031;-61
2023/09/05 17:44:18;;;;;;;17.17;15.20;;;;;;;31.53;49.00;101203.34;21089694;28;20036;-63
2023/09/05 17:54:19;;;;;;;18.27;16.35;;;;;;;31.56;48.91;101194.97;21087246;28;20101;-66
2023/09/05 18:04:20;;;;;;;18.50;16.60;;;;;;;31.59;48.84;101196.31;21088335;28;20052;-63
2023/09/05 18:14:22;;;;;;;18.40;16.40;;;;;;;31.61;48.81;101203.28;21087890;28;20403;-63
2023/09/05 18:24:25;;;;;;;18.23;16.25;;;;;;;31.61;48.84;101182.63;21086944;28;20344;-62
2023/09/05 18:34:37;;;;;;;18.45;16.55;;;;;;;31.57;48.72;101173.22;21084982;28;20063;-63
2023/09/05 18:44:42;;;;;;;19.08;16.60;;;;;;;31.56;48.76;101157.38;21085156;28;20032;-62
2023/09/05 18:54:43;;;;;;;17.77;16.02;;;;;;;31.67;48.39;101160.63;21083555;28;20040;-63
2023/09/05 19:04:45;;;;;;;19.95;15.95;;;;;;;31.71;48.30;101156.75;21083504;28;20024;-63
2023/09/05 19:14:48;;;;;;;21.45;16.73;;;;;;;31.71;48.31;101145.41;21082453;28;20101;-62
2023/09/05 19:24:52;;;;;;;20.88;16.35;;;;;;;31.68;48.35;101131.97;21081291;28;20032;-62
2023/09/05 19:34:54;;;;;;;19.80;17.23;;;;;;;31.76;48.35;101135.88;21080865;28;20044;-62
2023/09/05 19:44:56;;;;;;;20.60;16.35;;;;;;;31.73;48.44;101123.25;21079978;28;20032;-63
2023/09/05 19:55:00;;;;;;;21.63;16.50;;;;;;;31.72;48.35;101107.47;21079054;28;20556;-64
2023/09/05 20:05:02;;;;;;;18.27;15.93;;;;;;;31.79;48.49;101102.03;21077725;28;20511;-63
2023/09/05 20:15:03;;;;;;;20.35;16.00;;;;;;;31.80;48.48;101103.69;21077803;28;20117;-64
2023/09/05 20:25:06;;;;;;;18.88;16.65;;;;;;;31.77;48.54;101093.06;21078053;28;20047;-63
2023/09/05 20:35:08;;;;;;;17.60;15.75;;;;;;;31.81;48.74;101094.03;21074761;28;20044;-63
2023/09/05 20:45:12;;;;;;;17.95;16.15;;;;;;;31.84;48.66;101103.84;21076446;28;20040;-63
2023/09/05 20:55:13;;;;;;;23.95;16.83;;;;;;;31.85;48.59;101095.00;21075849;28;20066;-63
2023/09/05 21:05:15;;;;;;;19.80;16.25;;;;;;;31.85;48.87;101089.34;21075361;28;20133;-63
2023/09/05 21:15:16;;;;;;;18.48;16.05;;;;;;;31.88;48.79;101094.28;21062396;28;20058;-64
2023/09/05 21:25:18;;;;;;;20.85;15.73;;;;;;;31.92;48.53;101094.41;21074021;28;20094;-63
2023/09/05 21:35:25;;;;;;;16.70;14.70;;;;;;;31.93;48.47;101086.75;21058336;28;20051;-62
2023/09/05 21:45:27;;;;;;;17.50;15.65;;;;;;;31.98;48.52;101086.50;21067999;28;20040;-61
2023/09/05 21:55:28;;;;;;;16.23;14.63;;;;;;;32.00;48.45;101103.97;21071846;28;20050;-62
2023/09/05 22:05:30;;;;;;;17.95;15.65;;;;;;;31.87;48.46;101081.31;21084204;28;20441;-62
2023/09/05 22:15:32;;;;;;;19.08;14.85;;;;;;;32.02;48.38;101108.09;21063404;28;20097;-62
2023/09/05 22:25:35;;;;;;;16.48;14.75;;;;;;;31.81;48.17;101082.72;21084735;28;20555;-63
2023/09/05 22:35:37;;;;;;;20.08;15.25;;;;;;;32.05;48.47;101109.41;21076146;28;20495;-63
2023/09/05 22:45:38;;;;;;;17.50;15.40;;;;;;;32.04;48.47;101108.56;21078442;28;20368;-61
2023/09/05 22:55:40;;;;;;;18.35;15.23;;;;;;;32.07;48.74;101115.50;21070417;28;20041;-62
2023/09/05 23:05:41;;;;;;;17.38;15.63;;;;;;;31.66;48.77;101045.78;21058672;28;20101;-63
2023/09/05 23:15:42;;;;;;;18.05;15.57;;;;;;;32.08;48.85;101120.03;21073605;28;20031;-62
2023/09/05 23:25:45;;;;;;;19.65;15.18;;;;;;;32.04;48.84;101116.25;21078448;28;20032;-62
2023/09/05 23:35:46;;;;;;;17.13;14.85;;;;;;;31.96;48.61;101106.69;21060830;28;20048;-63
2023/09/05 23:46:00;;;;;;;19.60;14.90;;;;;;;32.08;48.92;101137.00;21076051;28;20051;-62
2023/09/05 23:56:03;;;;;;;18.10;14.93;;;;;;;32.11;48.83;101131.44;21073235;28;20061;-63
